Terminal Aerodrome Forecast
Issued by NWS

Home | Current Version | Previous Version | Text Only | Print | Product List | Glossary On
Versions: 1 2 3 4 5 6 7 8 9 10 11 12 13
000
FTUS44 KEPZ 070536
TAFTCS
TAF
KTCS 070536Z 0706/0806 02014KT P6SM BKN080 BKN200
     FM071700 04009KT P6SM SCT070 BKN100
     FM080500 30008KT P6SM BKN050 BKN080 OVC170=

USA.gov is the U.S. government's official web portal to all federal, state and local government web resources and services.